Aeroporto :
LOGIN :

Iscrizione | Disclaimer

   EN    FR    IT 

 










Sommario :    VFR   VFR Marginale   IFR   IFR Intensivo   IFR Molto Intensivo
Visibilità : 
Base nubi : 
>= 8 km
>= 3000ft
5 / 8 km
1000 / 3000 ft
1500m / 5 km
500 / 1000 ft
800 / 1500m
200 / 500 ft
< 800m
< 200 ft
Simboli :   Temporali  Nebbia  Neve Forte  Precipitazioni Forti  Vento > 20 kt
SIGMETs :   Varie  Temporali  Ghiacco  Turbolenza  Onda orograficha  Ceneri Vulcaniche






- Altitudine del aeroporto : 16 ft
- Codice IATA : AAE


DABB - Annaba-Rabah Bitat

ULTIMO METAR :
  • 191630Z 36007KT 9999 FEW033 SCT100 15/12 Q1014

METARs OBSOLETI :
  • 191600Z 35007KT 9999 FEW033 SCT100 15/12 Q1014
  • 191530Z 35009KT 9999 FEW033 SCT100 15/11 Q1013
  • 191500Z 02004KT 9999 FEW033 SCT100 16/12 Q1013
  • 191430Z 01007KT 9999 FEW033 BKN200 16/12 Q1013
  • 191400Z 02006KT CAVOK 16/11 Q1013

TAF TAF DABB
Valido dal 19 a 12 ore il 20 a 12 ore UTC


191100Z 1912/2012 24013KT 9999 FEW030 SCT090
TEMPO 1914/1920 FEW023TCU
BECMG 1920/1922 16010KT
BECMG 2010/2012 08013KT



MetMap, La meteo Aeronautica in un colpo d'occhio ! - Copyright ORBIFLY Dicembre 2007 - Disclaimer

ORBIFLY MET'MAP TEAM :

Programmazione e sviluppo : Alexandra Zaïnal
Concezione : Baudouin d'Aumeries
Aiuto per la programmazione : Marc-Olivier Méhu
Supporto tecnico e logistico : Manuel Goepfert
Aiuto per la traduzione : Arnaldo La Scala

Contatto : metmap@orbifly.com




FONTI E CREDITI :

   NOAA